sensor_id;sensor_type;location;lat;lon;timestamp;pressure;altitude;pressure_sealevel;temperature;humidity
57412;BME280;43247;52.828;-8.980;2023-05-21T00:00:07;102587.93;;;14.79;84.91
57412;BME280;43247;52.828;-8.980;2023-05-21T00:01:07;102584.47;;;14.78;84.89
57412;BME280;43247;52.828;-8.980;2023-05-21T00:02:07;102582.58;;;14.78;84.91
57412;BME280;43247;52.828;-8.980;2023-05-21T00:03:07;102582.92;;;14.78;84.91
57412;BME280;43247;52.828;-8.980;2023-05-21T00:04:07;102580.58;;;14.78;84.91
57412;BME280;43247;52.828;-8.980;2023-05-21T00:05:08;102580.39;;;14.78;84.94
57412;BME280;43247;52.828;-8.980;2023-05-21T00:06:08;102581.35;;;14.78;84.97
57412;BME280;43247;52.828;-8.980;2023-05-21T00:07:08;102578.44;;;14.77;85.04
57412;BME280;43247;52.828;-8.980;2023-05-21T00:08:08;102577.38;;;14.77;85.07
57412;BME280;43247;52.828;-8.980;2023-05-21T00:09:08;102576.53;;;14.77;85.08
57412;BME280;43247;52.828;-8.980;2023-05-21T00:10:09;102575.00;;;14.77;85.11
57412;BME280;43247;52.828;-8.980;2023-05-21T00:11:09;102572.62;;;14.77;85.08
57412;BME280;43247;52.828;-8.980;2023-05-21T00:12:09;102573.67;;;14.77;85.08
57412;BME280;43247;52.828;-8.980;2023-05-21T00:13:10;102575.81;;;14.77;85.07
57412;BME280;43247;52.828;-8.980;2023-05-21T00:14:10;102575.65;;;14.77;85.05
57412;BME280;43247;52.828;-8.980;2023-05-21T00:15:10;102576.93;;;14.77;85.05
57412;BME280;43247;52.828;-8.980;2023-05-21T00:16:10;102577.53;;;14.77;85.05
57412;BME280;43247;52.828;-8.980;2023-05-21T00:17:11;102578.81;;;14.77;85.07
57412;BME280;43247;52.828;-8.980;2023-05-21T00:18:11;102581.10;;;14.77;85.08
57412;BME280;43247;52.828;-8.980;2023-05-21T00:19:11;102582.82;;;14.77;85.03
57412;BME280;43247;52.828;-8.980;2023-05-21T00:20:12;102582.99;;;14.77;85.06
57412;BME280;43247;52.828;-8.980;2023-05-21T00:21:12;102586.35;;;14.77;85.12
57412;BME280;43247;52.828;-8.980;2023-05-21T00:22:12;102588.09;;;14.77;85.11
57412;BME280;43247;52.828;-8.980;2023-05-21T00:23:12;102588.83;;;14.77;85.11
57412;BME280;43247;52.828;-8.980;2023-05-21T00:24:12;102589.43;;;14.77;85.05
57412;BME280;43247;52.828;-8.980;2023-05-21T00:25:12;102588.57;;;14.76;85.08
57412;BME280;43247;52.828;-8.980;2023-05-21T00:26:12;102586.71;;;14.76;85.08
57412;BME280;43247;52.828;-8.980;2023-05-21T00:27:13;102585.38;;;14.76;85.06
57412;BME280;43247;52.828;-8.980;2023-05-21T00:28:13;102586.19;;;14.76;85.03
57412;BME280;43247;52.828;-8.980;2023-05-21T00:29:13;102586.12;;;14.76;85.08
57412;BME280;43247;52.828;-8.980;2023-05-21T00:30:13;102585.74;;;14.76;85.08
57412;BME280;43247;52.828;-8.980;2023-05-21T00:31:13;102585.12;;;14.76;85.05
57412;BME280;43247;52.828;-8.980;2023-05-21T00:32:13;102586.09;;;14.76;85.05
57412;BME280;43247;52.828;-8.980;2023-05-21T00:33:14;102586.21;;;14.75;85.11
57412;BME280;43247;52.828;-8.980;2023-05-21T00:34:15;102587.55;;;14.75;85.05
57412;BME280;43247;52.828;-8.980;2023-05-21T00:35:15;102590.13;;;14.75;85.11
57412;BME280;43247;52.828;-8.980;2023-05-21T00:36:14;102591.05;;;14.75;85.11
57412;BME280;43247;52.828;-8.980;2023-05-21T00:37:14;102591.75;;;14.75;85.14
57412;BME280;43247;52.828;-8.980;2023-05-21T00:38:14;102591.68;;;14.75;85.15
57412;BME280;43247;52.828;-8.980;2023-05-21T00:39:14;102593.63;;;14.75;85.14
57412;BME280;43247;52.828;-8.980;2023-05-21T00:40:16;102593.49;;;14.75;85.18
57412;BME280;43247;52.828;-8.980;2023-05-21T00:41:15;102592.27;;;14.75;85.15
57412;BME280;43247;52.828;-8.980;2023-05-21T00:42:15;102592.20;;;14.75;85.11
57412;BME280;43247;52.828;-8.980;2023-05-21T00:43:15;102593.34;;;14.75;85.12
57412;BME280;43247;52.828;-8.980;2023-05-21T00:44:15;102590.44;;;14.75;85.19
57412;BME280;43247;52.828;-8.980;2023-05-21T00:45:15;102590.51;;;14.75;85.21
57412;BME280;43247;52.828;-8.980;2023-05-21T00:46:17;102589.93;;;14.75;85.18
57412;BME280;43247;52.828;-8.980;2023-05-21T00:47:16;102588.53;;;14.75;85.21
57412;BME280;43247;52.828;-8.980;2023-05-21T00:48:16;102588.17;;;14.75;85.12
57412;BME280;43247;52.828;-8.980;2023-05-21T00:49:16;102588.29;;;14.75;85.11
57412;BME280;43247;52.828;-8.980;2023-05-21T00:50:16;102587.66;;;14.74;85.14
57412;BME280;43247;52.828;-8.980;2023-05-21T00:51:17;102586.67;;;14.74;85.11
57412;BME280;43247;52.828;-8.980;2023-05-21T00:52:17;102587.09;;;14.75;85.11
57412;BME280;43247;52.828;-8.980;2023-05-21T00:53:17;102583.37;;;14.74;85.11
57412;BME280;43247;52.828;-8.980;2023-05-21T00:54:17;102587.09;;;14.75;85.11
57412;BME280;43247;52.828;-8.980;2023-05-21T00:55:17;102586.40;;;14.75;85.10
57412;BME280;43247;52.828;-8.980;2023-05-21T00:56:18;102587.59;;;14.74;85.12
57412;BME280;43247;52.828;-8.980;2023-05-21T00:57:18;102586.66;;;14.74;85.07
57412;BME280;43247;52.828;-8.980;2023-05-21T00:58:17;102588.17;;;14.74;85.08
57412;BME280;43247;52.828;-8.980;2023-05-21T00:59:18;102589.39;;;14.74;85.04
57412;BME280;43247;52.828;-8.980;2023-05-21T01:00:18;102592.42;;;14.74;85.11
57412;BME280;43247;52.828;-8.980;2023-05-21T01:01:18;102592.01;;;14.74;85.10
57412;BME280;43247;52.828;-8.980;2023-05-21T01:02:18;102595.82;;;14.74;85.11
57412;BME280;43247;52.828;-8.980;2023-05-21T01:03:18;102595.54;;;14.74;85.09
57412;BME280;43247;52.828;-8.980;2023-05-21T01:04:18;102594.97;;;14.74;85.08
57412;BME280;43247;52.828;-8.980;2023-05-21T01:05:19;102594.85;;;14.74;85.11
57412;BME280;43247;52.828;-8.980;2023-05-21T01:06:19;102592.25;;;14.74;85.09
57412;BME280;43247;52.828;-8.980;2023-05-21T01:07:19;102592.08;;;14.73;85.06
57412;BME280;43247;52.828;-8.980;2023-05-21T01:08:20;102591.10;;;14.73;85.20
57412;BME280;43247;52.828;-8.980;2023-05-21T01:09:20;102589.24;;;14.73;85.33
57412;BME280;43247;52.828;-8.980;2023-05-21T01:10:20;102588.40;;;14.73;85.33
57412;BME280;43247;52.828;-8.980;2023-05-21T01:11:20;102586.24;;;14.73;85.37
57412;BME280;43247;52.828;-8.980;2023-05-21T01:12:22;102583.47;;;14.72;85.35
57412;BME280;43247;52.828;-8.980;2023-05-21T01:13:20;102581.06;;;14.72;85.29
57412;BME280;43247;52.828;-8.980;2023-05-21T01:14:22;102579.29;;;14.72;85.25
57412;BME280;43247;52.828;-8.980;2023-05-21T01:15:21;102575.24;;;14.73;85.27
57412;BME280;43247;52.828;-8.980;2023-05-21T01:16:21;102572.78;;;14.72;85.23
57412;BME280;43247;52.828;-8.980;2023-05-21T01:17:21;102570.13;;;14.72;85.21
57412;BME280;43247;52.828;-8.980;2023-05-21T01:18:21;102568.15;;;14.72;85.24
57412;BME280;43247;52.828;-8.980;2023-05-21T01:19:22;102564.81;;;14.72;85.16
57412;BME280;43247;52.828;-8.980;2023-05-21T01:20:22;102565.48;;;14.72;85.14
57412;BME280;43247;52.828;-8.980;2023-05-21T01:21:23;102565.58;;;14.72;85.24
57412;BME280;43247;52.828;-8.980;2023-05-21T01:22:22;102565.48;;;14.72;85.19
57412;BME280;43247;52.828;-8.980;2023-05-21T01:23:22;102565.58;;;14.72;85.18
57412;BME280;43247;52.828;-8.980;2023-05-21T01:24:22;102566.06;;;14.72;85.14
57412;BME280;43247;52.828;-8.980;2023-05-21T01:25:22;102565.99;;;14.72;85.13
57412;BME280;43247;52.828;-8.980;2023-05-21T01:26:22;102564.08;;;14.72;85.19
57412;BME280;43247;52.828;-8.980;2023-05-21T01:27:22;102566.05;;;14.73;85.21
57412;BME280;43247;52.828;-8.980;2023-05-21T01:28:23;102565.05;;;14.73;85.18
57412;BME280;43247;52.828;-8.980;2023-05-21T01:29:23;102563.57;;;14.73;85.16
57412;BME280;43247;52.828;-8.980;2023-05-21T01:30:24;102561.35;;;14.73;85.12
57412;BME280;43247;52.828;-8.980;2023-05-21T01:31:28;102559.45;;;14.73;85.06
57412;BME280;43247;52.828;-8.980;2023-05-21T01:32:30;102556.40;;;14.73;85.08
57412;BME280;43247;52.828;-8.980;2023-05-21T01:33:31;102556.78;;;14.73;85.11
57412;BME280;43247;52.828;-8.980;2023-05-21T01:34:28;102553.67;;;14.72;85.13
57412;BME280;43247;52.828;-8.980;2023-05-21T01:35:28;102552.63;;;14.72;85.13
57412;BME280;43247;52.828;-8.980;2023-05-21T01:36:29;102553.06;;;14.73;85.14
57412;BME280;43247;52.828;-8.980;2023-05-21T01:37:29;102552.72;;;14.73;85.11
57412;BME280;43247;52.828;-8.980;2023-05-21T01:38:28;102550.12;;;14.73;85.11
57412;BME280;43247;52.828;-8.980;2023-05-21T01:39:28;102549.29;;;14.73;85.07
57412;BME280;43247;52.828;-8.980;2023-05-21T01:40:30;102547.74;;;14.74;85.09
57412;BME280;43247;52.828;-8.980;2023-05-21T01:41:28;102550.60;;;14.73;85.08
57412;BME280;43247;52.828;-8.980;2023-05-21T01:42:27;102550.95;;;14.74;85.11
57412;BME280;43247;52.828;-8.980;2023-05-21T01:43:28;102552.41;;;14.74;85.04
57412;BME280;43247;52.828;-8.980;2023-05-21T01:44:27;102552.24;;;14.73;84.99
57412;BME280;43247;52.828;-8.980;2023-05-21T01:45:28;102555.13;;;14.73;85.00
57412;BME280;43247;52.828;-8.980;2023-05-21T01:46:32;102555.18;;;14.72;85.08
57412;BME280;43247;52.828;-8.980;2023-05-21T01:47:29;102557.04;;;14.71;85.08
57412;BME280;43247;52.828;-8.980;2023-05-21T01:48:28;102555.51;;;14.71;85.10
57412;BME280;43247;52.828;-8.980;2023-05-21T01:49:28;102555.17;;;14.70;85.09
57412;BME280;43247;52.828;-8.980;2023-05-21T01:50:28;102557.64;;;14.71;85.06
57412;BME280;43247;52.828;-8.980;2023-05-21T01:51:29;102557.52;;;14.71;85.05
57412;BME280;43247;52.828;-8.980;2023-05-21T01:52:29;102557.68;;;14.71;85.00
57412;BME280;43247;52.828;-8.980;2023-05-21T01:53:29;102556.63;;;14.71;84.97
57412;BME280;43247;52.828;-8.980;2023-05-21T01:54:29;102556.82;;;14.71;84.92
57412;BME280;43247;52.828;-8.980;2023-05-21T01:55:29;102558.40;;;14.71;84.92
57412;BME280;43247;52.828;-8.980;2023-05-21T01:56:30;102557.75;;;14.71;84.86
57412;BME280;43247;52.828;-8.980;2023-05-21T01:57:30;102558.06;;;14.71;84.86
57412;BME280;43247;52.828;-8.980;2023-05-21T01:58:31;102558.54;;;14.71;84.83
57412;BME280;43247;52.828;-8.980;2023-05-21T01:59:31;102557.95;;;14.72;84.87
57412;BME280;43247;52.828;-8.980;2023-05-21T02:00:32;102559.09;;;14.72;84.83
57412;BME280;43247;52.828;-8.980;2023-05-21T02:01:32;102558.20;;;14.72;84.82
57412;BME280;43247;52.828;-8.980;2023-05-21T02:02:32;102560.74;;;14.73;84.91
57412;BME280;43247;52.828;-8.980;2023-05-21T02:03:33;102560.95;;;14.73;84.87
57412;BME280;43247;52.828;-8.980;2023-05-21T02:04:33;102562.59;;;14.73;84.84
57412;BME280;43247;52.828;-8.980;2023-05-21T02:05:33;102559.64;;;14.73;84.84
57412;BME280;43247;52.828;-8.980;2023-05-21T02:06:33;102560.74;;;14.73;84.83
57412;BME280;43247;52.828;-8.980;2023-05-21T02:07:34;102558.49;;;14.73;84.86
57412;BME280;43247;52.828;-8.980;2023-05-21T02:08:34;102560.04;;;14.73;84.89
57412;BME280;43247;52.828;-8.980;2023-05-21T02:09:35;102558.64;;;14.73;84.93
57412;BME280;43247;52.828;-8.980;2023-05-21T02:10:35;102560.00;;;14.73;84.87
57412;BME280;43247;52.828;-8.980;2023-05-21T02:11:35;102559.11;;;14.73;84.90
57412;BME280;43247;52.828;-8.980;2023-05-21T02:12:35;102559.56;;;14.74;84.91
57412;BME280;43247;52.828;-8.980;2023-05-21T02:13:35;102561.74;;;14.73;84.88
57412;BME280;43247;52.828;-8.980;2023-05-21T02:14:35;102562.59;;;14.73;84.89
57412;BME280;43247;52.828;-8.980;2023-05-21T02:15:36;102563.36;;;14.73;84.85
57412;BME280;43247;52.828;-8.980;2023-05-21T02:16:36;102564.98;;;14.72;84.90
57412;BME280;43247;52.828;-8.980;2023-05-21T02:17:36;102565.22;;;14.72;84.91
57412;BME280;43247;52.828;-8.980;2023-05-21T02:18:36;102563.89;;;14.72;84.95
57412;BME280;43247;52.828;-8.980;2023-05-21T02:19:36;102564.51;;;14.72;84.96
57412;BME280;43247;52.828;-8.980;2023-05-21T02:20:37;102564.26;;;14.72;84.97
57412;BME280;43247;52.828;-8.980;2023-05-21T02:21:37;102565.24;;;14.73;84.98
57412;BME280;43247;52.828;-8.980;2023-05-21T02:22:38;102565.50;;;14.72;84.97
57412;BME280;43247;52.828;-8.980;2023-05-21T02:23:38;102562.98;;;14.73;84.95
57412;BME280;43247;52.828;-8.980;2023-05-21T02:24:38;102564.17;;;14.72;85.02
57412;BME280;43247;52.828;-8.980;2023-05-21T02:25:38;102562.64;;;14.72;85.02
57412;BME280;43247;52.828;-8.980;2023-05-21T02:26:39;102564.72;;;14.73;85.00
57412;BME280;43247;52.828;-8.980;2023-05-21T02:27:41;102562.96;;;14.72;85.02
57412;BME280;43247;52.828;-8.980;2023-05-21T02:28:40;102563.09;;;14.73;85.04
57412;BME280;43247;52.828;-8.980;2023-05-21T02:29:40;102561.38;;;14.72;85.03
57412;BME280;43247;52.828;-8.980;2023-05-21T02:30:40;102561.16;;;14.73;85.00
57412;BME280;43247;52.828;-8.980;2023-05-21T02:31:40;102561.17;;;14.72;85.00
57412;BME280;43247;52.828;-8.980;2023-05-21T02:32:43;102559.49;;;14.72;85.04
57412;BME280;43247;52.828;-8.980;2023-05-21T02:33:41;102562.79;;;14.72;85.06
57412;BME280;43247;52.828;-8.980;2023-05-21T02:34:41;102561.62;;;14.71;85.05
57412;BME280;43247;52.828;-8.980;2023-05-21T02:35:42;102562.91;;;14.71;85.06
57412;BME280;43247;52.828;-8.980;2023-05-21T02:36:42;102561.55;;;14.70;85.13
57412;BME280;43247;52.828;-8.980;2023-05-21T02:37:42;102563.31;;;14.71;85.17
57412;BME280;43247;52.828;-8.980;2023-05-21T02:38:42;102561.59;;;14.71;85.30
57412;BME280;43247;52.828;-8.980;2023-05-21T02:39:43;102561.74;;;14.71;85.31
57412;BME280;43247;52.828;-8.980;2023-05-21T02:40:43;102561.79;;;14.71;85.34
57412;BME280;43247;52.828;-8.980;2023-05-21T02:41:44;102562.64;;;14.70;85.38
57412;BME280;43247;52.828;-8.980;2023-05-21T02:42:43;102559.90;;;14.70;85.38
57412;BME280;43247;52.828;-8.980;2023-05-21T02:43:43;102560.59;;;14.71;85.52
57412;BME280;43247;52.828;-8.980;2023-05-21T02:44:44;102561.05;;;14.70;85.41
57412;BME280;43247;52.828;-8.980;2023-05-21T02:45:44;102561.54;;;14.70;85.42
57412;BME280;43247;52.828;-8.980;2023-05-21T02:46:44;102562.05;;;14.70;85.46
57412;BME280;43247;52.828;-8.980;2023-05-21T02:47:44;102561.90;;;14.69;85.43
57412;BME280;43247;52.828;-8.980;2023-05-21T02:48:44;102558.47;;;14.68;85.48
57412;BME280;43247;52.828;-8.980;2023-05-21T02:49:44;102561.35;;;14.69;85.49
57412;BME280;43247;52.828;-8.980;2023-05-21T02:50:44;102559.69;;;14.68;85.54
57412;BME280;43247;52.828;-8.980;2023-05-21T02:51:45;102560.31;;;14.68;85.58
57412;BME280;43247;52.828;-8.980;2023-05-21T02:52:45;102558.13;;;14.68;85.51
57412;BME280;43247;52.828;-8.980;2023-05-21T02:53:45;102558.95;;;14.68;85.56
57412;BME280;43247;52.828;-8.980;2023-05-21T02:54:46;102559.09;;;14.67;85.58
57412;BME280;43247;52.828;-8.980;2023-05-21T02:55:45;102557.21;;;14.67;85.56
57412;BME280;43247;52.828;-8.980;2023-05-21T02:56:45;102557.01;;;14.67;85.57
57412;BME280;43247;52.828;-8.980;2023-05-21T02:57:46;102556.01;;;14.66;85.67
57412;BME280;43247;52.828;-8.980;2023-05-21T02:58:46;102559.11;;;14.66;85.66
57412;BME280;43247;52.828;-8.980;2023-05-21T02:59:46;102558.56;;;14.66;85.69
57412;BME280;43247;52.828;-8.980;2023-05-21T03:00:46;102558.66;;;14.66;85.68
57412;BME280;43247;52.828;-8.980;2023-05-21T03:01:46;102557.64;;;14.64;85.79
57412;BME280;43247;52.828;-8.980;2023-05-21T03:02:46;102558.28;;;14.63;85.97
57412;BME280;43247;52.828;-8.980;2023-05-21T03:03:46;102556.97;;;14.62;85.91
57412;BME280;43247;52.828;-8.980;2023-05-21T03:04:47;102557.27;;;14.61;85.99
57412;BME280;43247;52.828;-8.980;2023-05-21T03:05:47;102557.90;;;14.61;85.90
57412;BME280;43247;52.828;-8.980;2023-05-21T03:06:47;102556.15;;;14.61;85.84
57412;BME280;43247;52.828;-8.980;2023-05-21T03:07:47;102557.76;;;14.61;85.80
57412;BME280;43247;52.828;-8.980;2023-05-21T03:08:47;102555.77;;;14.60;85.78
57412;BME280;43247;52.828;-8.980;2023-05-21T03:09:47;102555.65;;;14.61;85.71
57412;BME280;43247;52.828;-8.980;2023-05-21T03:10:48;102553.03;;;14.61;85.67
57412;BME280;43247;52.828;-8.980;2023-05-21T03:11:48;102551.81;;;14.61;85.56
57412;BME280;43247;52.828;-8.980;2023-05-21T03:12:48;102551.93;;;14.61;85.56
57412;BME280;43247;52.828;-8.980;2023-05-21T03:13:48;102552.14;;;14.61;85.51
57412;BME280;43247;52.828;-8.980;2023-05-21T03:14:48;102551.38;;;14.61;85.50
57412;BME280;43247;52.828;-8.980;2023-05-21T03:15:48;102553.87;;;14.60;85.46
57412;BME280;43247;52.828;-8.980;2023-05-21T03:16:48;102554.08;;;14.60;85.39
57412;BME280;43247;52.828;-8.980;2023-05-21T03:17:49;102557.71;;;14.59;85.46
57412;BME280;43247;52.828;-8.980;2023-05-21T03:18:49;102556.23;;;14.60;85.46
57412;BME280;43247;52.828;-8.980;2023-05-21T03:19:49;102557.42;;;14.60;85.49
57412;BME280;43247;52.828;-8.980;2023-05-21T03:20:49;102557.45;;;14.59;85.46
57412;BME280;43247;52.828;-8.980;2023-05-21T03:21:49;102557.75;;;14.59;85.46
57412;BME280;43247;52.828;-8.980;2023-05-21T03:22:49;102557.66;;;14.59;85.50
57412;BME280;43247;52.828;-8.980;2023-05-21T03:23:49;102557.02;;;14.59;85.49
57412;BME280;43247;52.828;-8.980;2023-05-21T03:24:50;102555.82;;;14.59;85.50
57412;BME280;43247;52.828;-8.980;2023-05-21T03:25:50;102555.68;;;14.60;85.44
57412;BME280;43247;52.828;-8.980;2023-05-21T03:26:50;102556.70;;;14.59;85.45
57412;BME280;43247;52.828;-8.980;2023-05-21T03:27:50;102557.16;;;14.60;85.45
57412;BME280;43247;52.828;-8.980;2023-05-21T03:28:50;102554.34;;;14.59;85.40
57412;BME280;43247;52.828;-8.980;2023-05-21T03:29:50;102553.06;;;14.59;85.46
57412;BME280;43247;52.828;-8.980;2023-05-21T03:30:50;102551.27;;;14.59;85.38
57412;BME280;43247;52.828;-8.980;2023-05-21T03:31:51;102551.00;;;14.59;85.37
57412;BME280;43247;52.828;-8.980;2023-05-21T03:32:51;102550.36;;;14.59;85.35
57412;BME280;43247;52.828;-8.980;2023-05-21T03:33:51;102549.76;;;14.58;85.34
57412;BME280;43247;52.828;-8.980;2023-05-21T03:34:51;102549.60;;;14.57;85.37
57412;BME280;43247;52.828;-8.980;2023-05-21T03:35:51;102550.74;;;14.55;85.50
57412;BME280;43247;52.828;-8.980;2023-05-21T03:36:52;102550.48;;;14.54;85.47
57412;BME280;43247;52.828;-8.980;2023-05-21T03:37:52;102552.13;;;14.53;85.45
57412;BME280;43247;52.828;-8.980;2023-05-21T03:38:52;102551.27;;;14.53;85.45
57412;BME280;43247;52.828;-8.980;2023-05-21T03:39:52;102549.98;;;14.52;85.44
57412;BME280;43247;52.828;-8.980;2023-05-21T03:40:53;102548.07;;;14.53;85.43
57412;BME280;43247;52.828;-8.980;2023-05-21T03:41:52;102545.94;;;14.53;85.41
57412;BME280;43247;52.828;-8.980;2023-05-21T03:42:52;102547.42;;;14.53;85.37
57412;BME280;43247;52.828;-8.980;2023-05-21T03:43:52;102546.07;;;14.53;85.39
57412;BME280;43247;52.828;-8.980;2023-05-21T03:44:53;102545.70;;;14.53;85.39
57412;BME280;43247;52.828;-8.980;2023-05-21T03:45:53;102542.70;;;14.53;85.31
57412;BME280;43247;52.828;-8.980;2023-05-21T03:46:53;102543.72;;;14.53;85.34
57412;BME280;43247;52.828;-8.980;2023-05-21T03:47:53;102543.48;;;14.53;85.34
57412;BME280;43247;52.828;-8.980;2023-05-21T03:48:53;102541.55;;;14.53;85.31
57412;BME280;43247;52.828;-8.980;2023-05-21T03:49:53;102542.10;;;14.54;85.31
57412;BME280;43247;52.828;-8.980;2023-05-21T03:50:54;102541.55;;;14.54;85.29
57412;BME280;43247;52.828;-8.980;2023-05-21T03:51:54;102542.49;;;14.54;85.28
57412;BME280;43247;52.828;-8.980;2023-05-21T03:52:54;102541.67;;;14.54;85.32
57412;BME280;43247;52.828;-8.980;2023-05-21T03:53:54;102542.13;;;14.54;85.32
57412;BME280;43247;52.828;-8.980;2023-05-21T03:54:54;102542.25;;;14.54;85.34
57412;BME280;43247;52.828;-8.980;2023-05-21T03:55:54;102540.79;;;14.54;85.36
57412;BME280;43247;52.828;-8.980;2023-05-21T03:56:54;102539.64;;;14.54;85.37
57412;BME280;43247;52.828;-8.980;2023-05-21T03:57:55;102536.42;;;14.54;85.38
57412;BME280;43247;52.828;-8.980;2023-05-21T03:58:55;102533.15;;;14.54;85.34
57412;BME280;43247;52.828;-8.980;2023-05-21T03:59:55;102532.13;;;14.54;85.37
57412;BME280;43247;52.828;-8.980;2023-05-21T04:00:55;102530.19;;;14.54;85.34
57412;BME280;43247;52.828;-8.980;2023-05-21T04:01:55;102529.15;;;14.55;85.35
57412;BME280;43247;52.828;-8.980;2023-05-21T04:02:55;102526.74;;;14.55;85.28
57412;BME280;43247;52.828;-8.980;2023-05-21T04:03:55;102527.26;;;14.55;85.27
57412;BME280;43247;52.828;-8.980;2023-05-21T04:04:56;102527.42;;;14.55;85.23
57412;BME280;43247;52.828;-8.980;2023-05-21T04:05:56;102524.97;;;14.55;85.26
57412;BME280;43247;52.828;-8.980;2023-05-21T04:06:56;102524.99;;;14.54;85.24
57412;BME280;43247;52.828;-8.980;2023-05-21T04:07:56;102525.75;;;14.54;85.31
57412;BME280;43247;52.828;-8.980;2023-05-21T04:08:56;102524.11;;;14.54;85.39
57412;BME280;43247;52.828;-8.980;2023-05-21T04:09:56;102522.85;;;14.55;85.42
57412;BME280;43247;52.828;-8.980;2023-05-21T04:10:57;102523.92;;;14.55;85.46
57412;BME280;43247;52.828;-8.980;2023-05-21T04:11:57;102524.85;;;14.55;85.42
57412;BME280;43247;52.828;-8.980;2023-05-21T04:12:57;102522.51;;;14.54;85.41
57412;BME280;43247;52.828;-8.980;2023-05-21T04:13:57;102522.77;;;14.54;85.45
57412;BME280;43247;52.828;-8.980;2023-05-21T04:14:57;102523.94;;;14.54;85.50
57412;BME280;43247;52.828;-8.980;2023-05-21T04:15:57;102522.44;;;14.54;85.55
57412;BME280;43247;52.828;-8.980;2023-05-21T04:16:58;102523.32;;;14.54;85.57
57412;BME280;43247;52.828;-8.980;2023-05-21T04:17:58;102519.52;;;14.54;85.67
57412;BME280;43247;52.828;-8.980;2023-05-21T04:18:58;102518.95;;;14.53;85.67
57412;BME280;43247;52.828;-8.980;2023-05-21T04:19:58;102518.05;;;14.53;85.75
57412;BME280;43247;52.828;-8.980;2023-05-21T04:20:58;102516.50;;;14.53;85.79
57412;BME280;43247;52.828;-8.980;2023-05-21T04:21:58;102516.52;;;14.53;85.84
57412;BME280;43247;52.828;-8.980;2023-05-21T04:22:58;102514.18;;;14.53;85.78
57412;BME280;43247;52.828;-8.980;2023-05-21T04:23:59;102512.60;;;14.53;85.91
57412;BME280;43247;52.828;-8.980;2023-05-21T04:24:59;102513.37;;;14.54;85.94
57412;BME280;43247;52.828;-8.980;2023-05-21T04:25:59;102510.20;;;14.54;85.96
57412;BME280;43247;52.828;-8.980;2023-05-21T04:26:59;102511.41;;;14.54;85.99
57412;BME280;43247;52.828;-8.980;2023-05-21T04:27:59;102510.94;;;14.54;85.99
57412;BME280;43247;52.828;-8.980;2023-05-21T04:28:59;102509.62;;;14.54;86.00
57412;BME280;43247;52.828;-8.980;2023-05-21T04:29:59;102509.22;;;14.54;85.96
57412;BME280;43247;52.828;-8.980;2023-05-21T04:31:00;102510.01;;;14.54;86.05
57412;BME280;43247;52.828;-8.980;2023-05-21T04:32:00;102510.20;;;14.54;86.04
57412;BME280;43247;52.828;-8.980;2023-05-21T04:33:00;102509.50;;;14.55;86.02
57412;BME280;43247;52.828;-8.980;2023-05-21T04:34:00;102508.31;;;14.55;86.00
57412;BME280;43247;52.828;-8.980;2023-05-21T04:35:00;102508.14;;;14.55;85.96
57412;BME280;43247;52.828;-8.980;2023-05-21T04:36:00;102510.27;;;14.54;85.96
57412;BME280;43247;52.828;-8.980;2023-05-21T04:37:01;102510.19;;;14.54;85.99
57412;BME280;43247;52.828;-8.980;2023-05-21T04:38:01;102511.15;;;14.54;85.98
57412;BME280;43247;52.828;-8.980;2023-05-21T04:39:01;102508.16;;;14.54;86.02
57412;BME280;43247;52.828;-8.980;2023-05-21T04:40:01;102506.66;;;14.55;86.04
57412;BME280;43247;52.828;-8.980;2023-05-21T04:41:01;102508.48;;;14.55;86.09
57412;BME280;43247;52.828;-8.980;2023-05-21T04:42:01;102509.12;;;14.55;86.06
57412;BME280;43247;52.828;-8.980;2023-05-21T04:43:02;102506.67;;;14.55;86.10
57412;BME280;43247;52.828;-8.980;2023-05-21T04:44:02;102508.46;;;14.55;86.07
57412;BME280;43247;52.828;-8.980;2023-05-21T04:45:02;102508.46;;;14.55;86.11
57412;BME280;43247;52.828;-8.980;2023-05-21T04:46:02;102507.31;;;14.55;86.10
57412;BME280;43247;52.828;-8.980;2023-05-21T04:47:02;102508.19;;;14.55;86.12
57412;BME280;43247;52.828;-8.980;2023-05-21T04:48:03;102509.10;;;14.56;86.14
57412;BME280;43247;52.828;-8.980;2023-05-21T04:49:03;102509.64;;;14.55;86.10
57412;BME280;43247;52.828;-8.980;2023-05-21T04:50:04;102511.96;;;14.56;86.13
57412;BME280;43247;52.828;-8.980;2023-05-21T04:51:04;102511.29;;;14.55;86.06
57412;BME280;43247;52.828;-8.980;2023-05-21T04:52:04;102511.89;;;14.56;86.07
57412;BME280;43247;52.828;-8.980;2023-05-21T04:53:04;102513.32;;;14.56;86.10
57412;BME280;43247;52.828;-8.980;2023-05-21T04:54:04;102511.99;;;14.56;86.10
57412;BME280;43247;52.828;-8.980;2023-05-21T04:55:05;102512.34;;;14.56;86.17
57412;BME280;43247;52.828;-8.980;2023-05-21T04:56:05;102510.36;;;14.56;86.12
57412;BME280;43247;52.828;-8.980;2023-05-21T04:57:05;102507.47;;;14.55;86.21
57412;BME280;43247;52.828;-8.980;2023-05-21T04:58:05;102510.27;;;14.55;86.10
57412;BME280;43247;52.828;-8.980;2023-05-21T04:59:05;102511.08;;;14.56;86.22
57412;BME280;43247;52.828;-8.980;2023-05-21T05:00:06;102509.36;;;14.55;86.30
57412;BME280;43247;52.828;-8.980;2023-05-21T05:01:05;102511.80;;;14.56;86.37
57412;BME280;43247;52.828;-8.980;2023-05-21T05:02:05;102510.24;;;14.55;86.33
57412;BME280;43247;52.828;-8.980;2023-05-21T05:03:06;102511.08;;;14.56;86.38
57412;BME280;43247;52.828;-8.980;2023-05-21T05:04:06;102511.65;;;14.57;86.37
57412;BME280;43247;52.828;-8.980;2023-05-21T05:05:07;102511.44;;;14.57;86.44
57412;BME280;43247;52.828;-8.980;2023-05-21T05:06:07;102512.68;;;14.57;86.45
57412;BME280;43247;52.828;-8.980;2023-05-21T05:07:07;102510.68;;;14.57;86.41
57412;BME280;43247;52.828;-8.980;2023-05-21T05:08:07;102512.11;;;14.58;86.34
57412;BME280;43247;52.828;-8.980;2023-05-21T05:09:07;102512.61;;;14.58;86.31
57412;BME280;43247;52.828;-8.980;2023-05-21T05:10:08;102514.13;;;14.58;86.31